createdAt,value
2023-12-26T00:01:33.546Z,10.16
2023-12-26T00:04:00.951Z,10.18
2023-12-26T00:06:28.473Z,10.22
2023-12-26T00:08:55.695Z,10.19
2023-12-26T00:11:23.143Z,10.17
2023-12-26T00:13:50.835Z,10.17
2023-12-26T00:16:19.162Z,10.14
2023-12-26T00:18:58.441Z,10.13
2023-12-26T00:21:28.816Z,10.17
2023-12-26T00:23:55.509Z,10.16
2023-12-26T00:26:22.999Z,10.18
2023-12-26T00:28:49.586Z,10.13
2023-12-26T00:31:16.112Z,10.12
2023-12-26T00:33:42.753Z,10.09
2023-12-26T00:36:19.306Z,10.10
2023-12-26T00:38:46.883Z,10.11
2023-12-26T00:41:14.805Z,10.05
2023-12-26T00:43:41.305Z,10.07
2023-12-26T00:46:07.962Z,10.07
2023-12-26T00:48:37.103Z,10.05
2023-12-26T00:51:04.344Z,10.10
2023-12-26T00:53:30.848Z,10.08
2023-12-26T00:55:57.322Z,10.05
2023-12-26T00:58:23.716Z,10.03
2023-12-26T01:00:50.229Z,10.04
2023-12-26T01:03:16.798Z,10.04
2023-12-26T01:05:43.291Z,10.09
2023-12-26T01:08:12.830Z,10.08
2023-12-26T01:10:39.294Z,10.07
2023-12-26T01:13:06.742Z,10.07
2023-12-26T01:15:33.193Z,10.10
2023-12-26T01:18:00.170Z,10.07
2023-12-26T01:20:26.863Z,10.08
2023-12-26T01:22:53.541Z,10.11
2023-12-26T01:25:20.130Z,10.10
2023-12-26T01:27:46.531Z,10.10
2023-12-26T01:30:13.141Z,10.10
2023-12-26T01:32:39.715Z,10.05
2023-12-26T01:35:07.092Z,10.07
2023-12-26T01:37:33.724Z,10.05
2023-12-26T01:40:00.258Z,10.08
2023-12-26T01:42:26.977Z,10.08
2023-12-26T01:44:53.490Z,10.09
2023-12-26T01:47:20.606Z,10.11
2023-12-26T01:49:47.116Z,10.12
2023-12-26T01:52:15.372Z,10.09
2023-12-26T01:54:41.968Z,10.02
2023-12-26T01:57:09.047Z,9.96
2023-12-26T01:59:37.652Z,9.97
2023-12-26T02:02:07.891Z,9.90
2023-12-26T02:04:35.131Z,9.94
2023-12-26T02:07:01.596Z,9.89
2023-12-26T02:09:28.878Z,9.94
2023-12-26T02:11:56.236Z,9.92
2023-12-26T02:14:22.912Z,9.94
2023-12-26T02:16:51.024Z,9.95
2023-12-26T02:19:17.574Z,9.94
2023-12-26T02:21:44.113Z,9.97
2023-12-26T02:24:10.607Z,10.00
2023-12-26T02:26:41.619Z,9.97
2023-12-26T02:29:08.261Z,10.00
2023-12-26T02:31:37.478Z,9.98
2023-12-26T02:34:04.297Z,9.96
2023-12-26T02:36:31.049Z,9.85
2023-12-26T02:38:57.581Z,9.85
2023-12-26T02:41:24.095Z,9.82
2023-12-26T02:43:50.568Z,9.78
2023-12-26T02:46:16.981Z,9.76
2023-12-26T02:48:43.561Z,9.70
2023-12-26T02:51:10.156Z,9.76
2023-12-26T02:53:36.639Z,9.72
2023-12-26T02:56:03.541Z,9.76
2023-12-26T02:58:30.515Z,9.71
2023-12-26T03:00:58.204Z,9.69
2023-12-26T03:03:24.730Z,9.64
2023-12-26T03:05:51.419Z,9.60
2023-12-26T03:08:18.068Z,9.62
2023-12-26T03:10:44.541Z,9.65
2023-12-26T03:13:10.956Z,9.64
2023-12-26T03:15:37.360Z,9.63
2023-12-26T03:18:04.381Z,9.63
2023-12-26T03:20:30.986Z,9.67
2023-12-26T03:22:57.933Z,9.69
2023-12-26T03:25:24.508Z,9.64
2023-12-26T03:27:50.988Z,9.64
2023-12-26T03:30:17.787Z,9.62
2023-12-26T03:32:45.872Z,9.65
2023-12-26T03:35:12.580Z,9.69
2023-12-26T03:37:39.281Z,9.72
2023-12-26T03:40:06.918Z,9.72
2023-12-26T03:42:33.504Z,9.74
2023-12-26T03:45:00.172Z,9.72
2023-12-26T03:47:26.869Z,9.72
2023-12-26T03:49:53.420Z,9.74
2023-12-26T03:52:19.895Z,9.77
2023-12-26T03:54:46.285Z,9.78
2023-12-26T03:57:12.854Z,9.78
2023-12-26T03:59:39.314Z,9.80
2023-12-26T04:02:05.769Z,9.77
2023-12-26T04:04:32.250Z,9.79
2023-12-26T04:06:58.724Z,9.77
2023-12-26T04:09:25.627Z,9.79
2023-12-26T04:11:52.028Z,9.82
2023-12-26T04:14:18.568Z,9.81
2023-12-26T04:16:44.982Z,9.76
2023-12-26T04:19:11.594Z,9.79
2023-12-26T04:21:38.147Z,9.73
2023-12-26T04:24:05.404Z,9.79
2023-12-26T04:26:31.933Z,9.79
2023-12-26T04:28:58.484Z,9.82
2023-12-26T04:31:26.365Z,9.78
2023-12-26T04:33:53.001Z,9.77
2023-12-26T04:36:19.561Z,9.75
2023-12-26T04:38:45.965Z,9.73
2023-12-26T04:41:13.022Z,9.66
2023-12-26T04:43:40.245Z,9.67
2023-12-26T04:46:06.776Z,9.70
2023-12-26T04:48:33.708Z,9.73
2023-12-26T04:51:00.212Z,9.69
2023-12-26T04:53:28.787Z,9.74
2023-12-26T04:55:57.693Z,9.78
2023-12-26T04:58:24.147Z,9.73
2023-12-26T05:00:50.711Z,9.73
2023-12-26T05:03:17.310Z,9.70
2023-12-26T05:05:44.020Z,9.76
2023-12-26T05:08:10.525Z,9.71
2023-12-26T05:10:36.948Z,9.70
2023-12-26T05:13:03.542Z,9.66
2023-12-26T05:15:30.188Z,9.65
2023-12-26T05:17:56.695Z,9.63
2023-12-26T05:20:30.497Z,9.61
2023-12-26T05:22:58.525Z,9.59
2023-12-26T05:25:26.179Z,9.51
2023-12-26T05:27:52.883Z,9.50
2023-12-26T05:30:19.546Z,9.46
2023-12-26T05:32:46.345Z,9.43
2023-12-26T05:35:13.155Z,9.47
2023-12-26T05:37:39.580Z,9.39
2023-12-26T05:40:06.699Z,9.38
2023-12-26T05:42:33.265Z,9.39
2023-12-26T05:44:59.752Z,9.34
2023-12-26T05:47:26.328Z,9.30
2023-12-26T05:49:54.578Z,9.27
2023-12-26T05:52:21.141Z,9.25
2023-12-26T05:54:47.522Z,9.17
2023-12-26T05:57:13.975Z,9.17
2023-12-26T05:59:40.415Z,9.14
2023-12-26T06:02:06.924Z,9.08
2023-12-26T06:04:35.673Z,9.14
2023-12-26T06:07:02.129Z,9.15
2023-12-26T06:09:28.536Z,9.17
2023-12-26T06:11:55.009Z,9.16
2023-12-26T06:14:23.533Z,9.17
2023-12-26T06:16:50.172Z,9.22
2023-12-26T06:19:17.729Z,9.22
2023-12-26T06:21:44.391Z,9.20
2023-12-26T06:24:10.951Z,9.18
2023-12-26T06:26:37.414Z,9.19
2023-12-26T06:29:03.910Z,9.22
2023-12-26T06:31:30.373Z,9.24
2023-12-26T06:33:56.963Z,9.24
2023-12-26T06:36:23.525Z,9.23
2023-12-26T06:38:50.136Z,9.26
2023-12-26T06:41:16.729Z,9.19
2023-12-26T06:43:43.105Z,9.22
2023-12-26T06:46:09.522Z,9.25
2023-12-26T06:48:36.287Z,9.26
2023-12-26T06:51:05.388Z,9.24
2023-12-26T06:53:31.808Z,9.24
2023-12-26T06:55:58.243Z,9.24
2023-12-26T06:58:24.660Z,9.24
2023-12-26T07:00:51.104Z,9.29
2023-12-26T07:03:18.732Z,9.27
2023-12-26T07:05:45.360Z,9.24
2023-12-26T07:08:11.866Z,9.30
2023-12-26T07:10:38.388Z,9.32
2023-12-26T07:13:04.900Z,9.34
2023-12-26T07:15:31.382Z,9.40
2023-12-26T07:17:59.861Z,9.40
2023-12-26T07:20:26.663Z,9.40
2023-12-26T07:22:53.196Z,9.40
2023-12-26T07:25:20.088Z,9.41
2023-12-26T07:27:46.494Z,9.46
2023-12-26T07:30:13.102Z,9.46
2023-12-26T07:32:40.070Z,9.49
2023-12-26T07:35:06.674Z,9.55
2023-12-26T07:37:33.532Z,9.55
2023-12-26T07:40:00.140Z,9.52
2023-12-26T07:42:27.175Z,9.56
2023-12-26T07:44:53.590Z,9.57
2023-12-26T07:47:20.088Z,9.58
2023-12-26T07:49:46.774Z,9.61
2023-12-26T07:52:13.542Z,9.62
2023-12-26T07:54:39.916Z,9.66
2023-12-26T07:57:07.006Z,9.67
2023-12-26T07:59:33.457Z,9.70
2023-12-26T08:01:59.856Z,9.70
2023-12-26T08:04:26.283Z,9.78
2023-12-26T08:06:53.285Z,9.80
2023-12-26T08:09:20.509Z,9.77
2023-12-26T08:11:47.014Z,9.78
2023-12-26T08:14:18.501Z,9.76
2023-12-26T08:16:46.593Z,9.78
2023-12-26T08:19:13.360Z,9.79
2023-12-26T08:21:39.893Z,9.83
2023-12-26T08:24:08.390Z,9.79
2023-12-26T08:26:34.884Z,9.83
2023-12-26T08:29:01.850Z,9.82
2023-12-26T08:31:28.263Z,9.84
2023-12-26T08:33:54.864Z,9.89
2023-12-26T08:36:21.448Z,9.92
2023-12-26T08:38:47.975Z,9.92
2023-12-26T08:41:14.624Z,9.92
2023-12-26T08:43:41.184Z,9.97
2023-12-26T08:46:07.636Z,9.95
2023-12-26T08:48:34.270Z,9.97
2023-12-26T08:51:00.892Z,9.94
2023-12-26T08:53:27.333Z,9.98
2023-12-26T08:55:53.768Z,10.00
2023-12-26T08:58:20.226Z,10.07
2023-12-26T09:00:46.755Z,10.06
2023-12-26T09:03:14.622Z,10.10
2023-12-26T09:05:41.817Z,10.11
2023-12-26T09:08:08.420Z,10.10
2023-12-26T09:10:34.868Z,10.11
2023-12-26T09:13:01.242Z,10.16
2023-12-26T09:15:27.805Z,10.20
2023-12-26T09:17:55.001Z,10.20
2023-12-26T09:20:21.570Z,10.19
2023-12-26T09:22:48.032Z,10.22
2023-12-26T09:25:15.190Z,10.26
2023-12-26T09:27:43.645Z,10.29
2023-12-26T09:30:10.821Z,10.35
2023-12-26T09:32:37.431Z,10.30
2023-12-26T09:35:04.226Z,10.31
2023-12-26T09:37:31.536Z,10.31
2023-12-26T09:39:57.909Z,10.29
2023-12-26T09:42:25.094Z,10.31
2023-12-26T09:44:52.345Z,10.28
2023-12-26T09:47:21.169Z,10.30
2023-12-26T09:49:48.756Z,10.23
2023-12-26T09:52:15.688Z,10.25
2023-12-26T09:54:47.566Z,10.25
2023-12-26T09:57:15.843Z,10.29
2023-12-26T09:59:43.361Z,10.35
2023-12-26T10:02:13.294Z,10.39
2023-12-26T10:04:41.017Z,10.44
2023-12-26T10:07:07.731Z,10.43
2023-12-26T10:09:34.585Z,10.46
2023-12-26T10:12:01.122Z,10.41
2023-12-26T10:14:31.580Z,10.47
2023-12-26T10:16:58.991Z,10.52
2023-12-26T10:19:26.706Z,10.60
2023-12-26T10:21:54.465Z,10.70
2023-12-26T10:24:21.955Z,10.75
2023-12-26T10:26:49.065Z,10.79
2023-12-26T10:29:16.561Z,10.75
2023-12-26T10:31:43.900Z,10.82
2023-12-26T10:34:20.455Z,10.79
2023-12-26T10:36:51.105Z,10.85
2023-12-26T10:39:18.717Z,11.01
2023-12-26T10:41:47.284Z,11.05
2023-12-26T10:44:18.298Z,11.21
2023-12-26T10:46:46.246Z,11.26
2023-12-26T10:49:25.701Z,11.26
2023-12-26T10:51:53.941Z,11.25
2023-12-26T10:54:26.521Z,11.20
2023-12-26T10:56:56.707Z,11.15
2023-12-26T11:00:19.709Z,11.10
2023-12-26T11:03:42.853Z,11.11
2023-12-26T11:07:05.716Z,11.04
2023-12-26T11:10:28.480Z,11.01
2023-12-26T11:13:51.101Z,10.90
2023-12-26T11:17:13.791Z,10.84
2023-12-26T11:20:36.593Z,10.89
2023-12-26T11:23:58.925Z,10.93
2023-12-26T11:27:21.737Z,11.00
2023-12-26T11:30:46.473Z,11.07
2023-12-26T11:34:09.794Z,11.05
2023-12-26T11:37:32.568Z,10.96
2023-12-26T11:40:55.411Z,10.81
2023-12-26T11:44:18.037Z,10.76
2023-12-26T11:47:40.832Z,10.86
2023-12-26T11:51:03.593Z,11.02
2023-12-26T11:54:26.436Z,10.98
2023-12-26T11:57:49.173Z,11.13
2023-12-26T12:01:11.926Z,11.23
2023-12-26T12:04:37.136Z,11.50
2023-12-26T12:07:59.786Z,11.78
2023-12-26T12:11:22.838Z,11.67
2023-12-26T12:14:45.333Z,11.57
2023-12-26T12:18:07.903Z,11.42
2023-12-26T12:21:30.942Z,11.16
2023-12-26T12:24:53.506Z,11.01
2023-12-26T12:28:16.210Z,11.02
2023-12-26T12:31:38.960Z,11.04
2023-12-26T12:35:01.514Z,11.04
2023-12-26T12:38:24.079Z,10.86
2023-12-26T12:41:46.745Z,10.78
2023-12-26T12:45:09.334Z,10.68
2023-12-26T12:48:32.612Z,10.56
2023-12-26T12:51:55.755Z,10.68
2023-12-26T12:55:18.387Z,11.16
2023-12-26T12:58:40.992Z,11.39
2023-12-26T13:02:03.868Z,11.48
2023-12-26T13:05:26.821Z,11.43
2023-12-26T13:08:49.632Z,11.27
2023-12-26T13:12:12.369Z,11.26
2023-12-26T13:15:35.026Z,11.12
2023-12-26T13:18:57.555Z,11.04
2023-12-26T13:22:20.430Z,10.92
2023-12-26T13:25:43.229Z,10.89
2023-12-26T13:29:05.894Z,10.95
2023-12-26T13:32:28.722Z,11.15
2023-12-26T13:35:51.800Z,11.30
2023-12-26T13:39:14.609Z,11.24
2023-12-26T13:42:37.682Z,11.23
2023-12-26T13:46:00.462Z,11.29
2023-12-26T13:49:23.398Z,11.43
2023-12-26T13:51:50.175Z,11.57
2023-12-26T13:54:16.683Z,11.66
2023-12-26T13:56:43.101Z,11.72
2023-12-26T13:59:09.521Z,11.70
2023-12-26T14:01:36.107Z,11.70
2023-12-26T14:04:03.797Z,11.63
2023-12-26T14:06:30.472Z,11.66
2023-12-26T14:08:56.981Z,11.52
2023-12-26T14:11:24.301Z,11.40
2023-12-26T14:13:50.749Z,11.35
2023-12-26T14:16:20.403Z,11.23
2023-12-26T14:18:47.130Z,11.16
2023-12-26T14:21:13.950Z,11.12
2023-12-26T14:23:40.636Z,11.14
2023-12-26T14:26:07.037Z,11.13
2023-12-26T14:28:33.448Z,11.17
2023-12-26T14:31:01.331Z,11.13
2023-12-26T14:33:28.219Z,11.09
2023-12-26T14:35:55.429Z,11.02
2023-12-26T14:38:21.896Z,11.01
2023-12-26T14:40:49.891Z,10.90
2023-12-26T14:43:16.627Z,10.82
2023-12-26T14:45:43.156Z,10.90
2023-12-26T14:48:09.799Z,10.93
2023-12-26T14:50:36.567Z,10.91
2023-12-26T14:53:03.116Z,10.87
2023-12-26T14:55:29.494Z,10.88
2023-12-26T14:57:55.951Z,10.87
2023-12-26T15:00:22.442Z,10.91
2023-12-26T15:02:49.024Z,10.86
2023-12-26T15:05:16.370Z,10.82
2023-12-26T15:07:42.852Z,10.85
2023-12-26T15:10:09.609Z,10.76
2023-12-26T15:12:36.039Z,10.61
2023-12-26T15:15:04.127Z,10.49
2023-12-26T15:17:30.783Z,10.28
2023-12-26T15:19:57.260Z,10.31
2023-12-26T15:22:23.879Z,10.23
2023-12-26T15:24:50.318Z,10.27
2023-12-26T15:27:16.875Z,10.18
2023-12-26T15:29:43.379Z,10.01
2023-12-26T15:32:10.686Z,9.89
2023-12-26T15:34:38.253Z,9.68
2023-12-26T15:37:04.814Z,9.53
2023-12-26T15:39:31.661Z,9.33
2023-12-26T15:41:58.248Z,9.13
2023-12-26T15:44:24.839Z,9.00
2023-12-26T15:46:51.245Z,8.98
2023-12-26T15:49:17.807Z,8.90
2023-12-26T15:51:44.264Z,8.86
2023-12-26T15:54:10.885Z,8.77
2023-12-26T15:56:37.326Z,8.62
2023-12-26T15:59:05.508Z,8.48
2023-12-26T16:01:32.028Z,8.38
2023-12-26T16:03:58.557Z,8.43
2023-12-26T16:06:27.139Z,8.81
2023-12-26T16:08:53.958Z,8.83
2023-12-26T16:11:20.629Z,8.86
2023-12-26T16:13:47.204Z,8.78
2023-12-26T16:16:14.070Z,8.73
2023-12-26T16:18:40.957Z,8.59
2023-12-26T16:21:08.353Z,8.40
2023-12-26T16:23:35.740Z,8.54
2023-12-26T16:26:08.448Z,8.40
2023-12-26T16:28:36.008Z,8.07
2023-12-26T16:31:03.330Z,7.82
2023-12-26T16:33:29.925Z,7.76
2023-12-26T16:35:56.535Z,7.64
2023-12-26T16:38:24.666Z,7.50
2023-12-26T16:40:52.595Z,7.34
2023-12-26T16:43:19.205Z,7.14
2023-12-26T16:45:45.600Z,7.00
2023-12-26T16:48:13.498Z,6.91
2023-12-26T16:50:40.268Z,6.78
2023-12-26T16:53:06.703Z,6.75
2023-12-26T16:55:33.403Z,6.67
2023-12-26T16:57:59.902Z,6.62
2023-12-26T17:00:27.320Z,6.69
2023-12-26T17:02:54.042Z,6.82
2023-12-26T17:05:20.800Z,6.67
2023-12-26T17:07:47.372Z,6.50
2023-12-26T17:10:13.915Z,6.35
2023-12-26T17:12:40.398Z,6.29
2023-12-26T17:15:07.525Z,6.17
2023-12-26T17:17:33.976Z,6.14
2023-12-26T17:20:00.471Z,6.07
2023-12-26T17:22:27.010Z,6.01
2023-12-26T17:25:06.186Z,6.02
2023-12-26T17:27:52.009Z,6.00
2023-12-26T17:30:20.686Z,6.03
2023-12-26T17:32:47.763Z,6.04
2023-12-26T17:35:14.258Z,6.02
2023-12-26T17:37:40.717Z,6.01
2023-12-26T17:40:07.904Z,6.03
2023-12-26T17:42:34.346Z,5.95
2023-12-26T17:45:01.140Z,5.91
2023-12-26T17:47:27.893Z,5.82
2023-12-26T17:49:55.879Z,5.75
2023-12-26T17:52:22.602Z,5.73
2023-12-26T17:54:49.475Z,5.67
2023-12-26T17:57:16.240Z,5.68
2023-12-26T17:59:42.754Z,5.62
2023-12-26T18:02:11.351Z,5.66
2023-12-26T18:04:37.789Z,5.62
2023-12-26T18:07:04.760Z,5.58
2023-12-26T18:09:32.468Z,5.55
2023-12-26T18:11:58.966Z,5.70
2023-12-26T18:14:25.433Z,6.00
2023-12-26T18:16:51.953Z,6.12
2023-12-26T18:19:18.575Z,6.21
2023-12-26T18:21:45.877Z,6.34
2023-12-26T18:24:12.569Z,6.44
2023-12-26T18:26:39.229Z,6.53
2023-12-26T18:29:05.851Z,6.57
2023-12-26T18:31:32.451Z,6.58
2023-12-26T18:33:59.083Z,6.49
2023-12-26T18:36:25.761Z,6.47
2023-12-26T18:38:52.345Z,6.44
2023-12-26T18:41:18.799Z,6.27
2023-12-26T18:43:45.283Z,6.06
2023-12-26T18:46:12.648Z,5.78
2023-12-26T18:48:41.639Z,5.55
2023-12-26T18:51:09.123Z,5.33
2023-12-26T18:53:35.744Z,5.20
2023-12-26T18:56:02.186Z,5.07
2023-12-26T18:58:28.778Z,4.92
2023-12-26T19:00:55.482Z,4.86
2023-12-26T19:03:21.993Z,4.75
2023-12-26T19:05:48.527Z,4.64
2023-12-26T19:08:14.937Z,4.56
2023-12-26T19:10:41.322Z,4.51
2023-12-26T19:13:07.745Z,4.47
2023-12-26T19:15:37.044Z,4.52
2023-12-26T19:18:06.282Z,4.76
2023-12-26T19:20:33.226Z,4.68
2023-12-26T19:23:00.001Z,4.72
2023-12-26T19:25:26.454Z,4.70
2023-12-26T19:27:53.008Z,4.57
2023-12-26T19:30:19.600Z,4.50
2023-12-26T19:32:46.377Z,4.50
2023-12-26T19:35:13.821Z,4.55
2023-12-26T19:37:40.319Z,4.65
2023-12-26T19:40:07.559Z,4.68
2023-12-26T19:42:34.118Z,4.77
2023-12-26T19:45:01.194Z,4.93
2023-12-26T19:47:27.816Z,5.03
2023-12-26T19:49:54.971Z,5.06
2023-12-26T19:52:21.553Z,5.14
2023-12-26T19:54:48.153Z,5.54
2023-12-26T19:57:14.695Z,5.63
2023-12-26T19:59:41.604Z,5.54
2023-12-26T20:02:08.689Z,5.46
2023-12-26T20:04:41.219Z,5.40
2023-12-26T20:07:07.739Z,5.55
2023-12-26T20:09:34.443Z,5.57
2023-12-26T20:12:01.283Z,5.50
2023-12-26T20:14:27.833Z,5.45
2023-12-26T20:16:54.286Z,5.36
2023-12-26T20:19:21.349Z,5.27
2023-12-26T20:21:48.236Z,5.15
2023-12-26T20:24:15.392Z,5.12
2023-12-26T20:26:45.626Z,5.09
2023-12-26T20:29:16.819Z,5.11
2023-12-26T20:31:44.591Z,5.13
2023-12-26T20:34:11.891Z,5.15
2023-12-26T20:36:42.966Z,5.18
2023-12-26T20:39:09.493Z,5.24
2023-12-26T20:41:36.340Z,5.24
2023-12-26T20:44:03.549Z,5.39
2023-12-26T20:46:30.150Z,5.47
2023-12-26T20:48:56.640Z,5.60
2023-12-26T20:51:23.415Z,5.62
2023-12-26T20:53:51.293Z,5.75
2023-12-26T20:56:18.981Z,5.61
2023-12-26T20:58:46.599Z,5.51
2023-12-26T21:01:17.441Z,5.56
2023-12-26T21:03:44.162Z,5.56
2023-12-26T21:06:17.116Z,5.53
2023-12-26T21:08:43.533Z,5.66
2023-12-26T21:11:10.084Z,5.76
2023-12-26T21:13:38.284Z,5.78
2023-12-26T21:16:05.097Z,5.83
2023-12-26T21:18:33.732Z,5.88
2023-12-26T21:21:00.655Z,5.98
2023-12-26T21:23:27.050Z,6.03
2023-12-26T21:25:53.513Z,6.01
2023-12-26T21:28:19.934Z,5.89
2023-12-26T21:30:46.418Z,5.85
2023-12-26T21:33:12.938Z,5.72
2023-12-26T21:35:39.349Z,5.64
2023-12-26T21:38:05.729Z,5.60
2023-12-26T21:40:32.074Z,5.51
2023-12-26T21:42:58.421Z,5.48
2023-12-26T21:45:24.859Z,5.56
2023-12-26T21:47:53.187Z,5.54
2023-12-26T21:50:22.528Z,5.61
2023-12-26T21:52:48.965Z,5.58
2023-12-26T21:55:15.468Z,5.53
2023-12-26T21:57:41.883Z,5.54
2023-12-26T22:00:09.698Z,5.53
2023-12-26T22:02:38.057Z,5.53
2023-12-26T22:05:04.850Z,5.53
2023-12-26T22:07:31.275Z,5.53
2023-12-26T22:09:57.711Z,5.65
2023-12-26T22:12:24.224Z,5.60
2023-12-26T22:14:50.782Z,5.56
2023-12-26T22:17:17.186Z,5.68
2023-12-26T22:19:43.625Z,5.56
2023-12-26T22:22:10.021Z,5.70
2023-12-26T22:24:39.747Z,5.74
2023-12-26T22:27:06.363Z,5.60
2023-12-26T22:29:32.769Z,5.63
2023-12-26T22:31:59.172Z,5.48
2023-12-26T22:34:26.629Z,5.30
2023-12-26T22:36:53.040Z,5.10
2023-12-26T22:39:19.489Z,4.98
2023-12-26T22:41:45.897Z,4.80
2023-12-26T22:44:15.060Z,4.64
2023-12-26T22:46:41.850Z,4.46
2023-12-26T22:49:08.307Z,4.32
2023-12-26T22:51:36.257Z,4.35
2023-12-26T22:54:02.813Z,4.30
2023-12-26T22:56:29.325Z,4.34
2023-12-26T22:58:55.741Z,4.43
2023-12-26T23:01:22.195Z,4.56
2023-12-26T23:03:49.025Z,4.51
2023-12-26T23:06:15.698Z,4.48
2023-12-26T23:08:42.160Z,4.44
2023-12-26T23:11:08.568Z,4.32
2023-12-26T23:13:34.986Z,4.26
2023-12-26T23:16:06.070Z,4.35
2023-12-26T23:18:32.576Z,4.29
2023-12-26T23:20:59.072Z,4.19
2023-12-26T23:23:25.478Z,4.19
2023-12-26T23:25:52.006Z,4.25
2023-12-26T23:28:18.411Z,4.27
2023-12-26T23:30:44.831Z,4.21
2023-12-26T23:33:11.465Z,4.11
2023-12-26T23:35:37.953Z,4.18
2023-12-26T23:38:04.377Z,4.22
2023-12-26T23:40:30.717Z,4.15
2023-12-26T23:42:57.531Z,4.00
2023-12-26T23:45:23.989Z,3.94
2023-12-26T23:47:50.506Z,3.88
2023-12-26T23:50:17.051Z,3.91
2023-12-26T23:52:43.700Z,3.94
2023-12-26T23:55:11.041Z,3.77
2023-12-26T23:57:37.568Z,3.56
